sensor_id;sensor_type;location;lat;lon;timestamp;P1;durP1;ratioP1;P2;durP2;ratioP2
20945;SDS011;10632;51.276;7.116;2022-09-06T00:00:39;2.47;;;1.27;;
20945;SDS011;10632;51.276;7.116;2022-09-06T00:03:07;3.08;;;1.50;;
20945;SDS011;10632;51.276;7.116;2022-09-06T00:05:35;2.15;;;1.27;;
20945;SDS011;10632;51.276;7.116;2022-09-06T00:08:05;3.33;;;1.45;;
20945;SDS011;10632;51.276;7.116;2022-09-06T00:10:32;2.45;;;1.40;;
20945;SDS011;10632;51.276;7.116;2022-09-06T00:13:00;3.47;;;1.30;;
20945;SDS011;10632;51.276;7.116;2022-09-06T00:15:28;3.42;;;1.60;;
20945;SDS011;10632;51.276;7.116;2022-09-06T00:17:56;2.75;;;1.42;;
20945;SDS011;10632;51.276;7.116;2022-09-06T00:20:24;3.50;;;1.40;;
20945;SDS011;10632;51.276;7.116;2022-09-06T00:22:56;2.63;;;1.27;;
20945;SDS011;10632;51.276;7.116;2022-09-06T00:25:24;5.18;;;1.50;;
20945;SDS011;10632;51.276;7.116;2022-09-06T00:27:52;2.50;;;1.20;;
20945;SDS011;10632;51.276;7.116;2022-09-06T00:30:21;2.60;;;1.30;;
20945;SDS011;10632;51.276;7.116;2022-09-06T00:32:49;2.92;;;1.40;;
20945;SDS011;10632;51.276;7.116;2022-09-06T00:35:16;2.70;;;1.38;;
20945;SDS011;10632;51.276;7.116;2022-09-06T00:37:44;2.85;;;1.30;;
20945;SDS011;10632;51.276;7.116;2022-09-06T00:40:16;2.33;;;1.35;;
20945;SDS011;10632;51.276;7.116;2022-09-06T00:42:51;2.72;;;1.48;;
20945;SDS011;10632;51.276;7.116;2022-09-06T00:45:22;3.17;;;1.40;;
20945;SDS011;10632;51.276;7.116;2022-09-06T00:47:55;3.35;;;1.60;;
20945;SDS011;10632;51.276;7.116;2022-09-06T00:50:24;2.67;;;1.40;;
20945;SDS011;10632;51.276;7.116;2022-09-06T00:52:54;3.47;;;1.30;;
20945;SDS011;10632;51.276;7.116;2022-09-06T00:55:32;3.42;;;1.80;;
20945;SDS011;10632;51.276;7.116;2022-09-06T00:58:03;7.30;;;1.80;;
20945;SDS011;10632;51.276;7.116;2022-09-06T01:00:35;3.15;;;1.60;;
20945;SDS011;10632;51.276;7.116;2022-09-06T01:03:13;5.95;;;1.90;;
20945;SDS011;10632;51.276;7.116;2022-09-06T01:05:45;5.68;;;1.88;;
20945;SDS011;10632;51.276;7.116;2022-09-06T01:08:32;3.63;;;1.60;;
20945;SDS011;10632;51.276;7.116;2022-09-06T01:11:12;4.50;;;1.70;;
20945;SDS011;10632;51.276;7.116;2022-09-06T01:13:53;5.03;;;1.70;;
20945;SDS011;10632;51.276;7.116;2022-09-06T01:16:28;3.45;;;1.75;;
20945;SDS011;10632;51.276;7.116;2022-09-06T01:19:11;3.55;;;1.80;;
20945;SDS011;10632;51.276;7.116;2022-09-06T01:22:01;3.97;;;1.90;;
20945;SDS011;10632;51.276;7.116;2022-09-06T01:24:49;5.05;;;2.03;;
20945;SDS011;10632;51.276;7.116;2022-09-06T01:27:45;3.55;;;1.80;;
20945;SDS011;10632;51.276;7.116;2022-09-06T01:30:36;5.20;;;1.88;;
20945;SDS011;10632;51.276;7.116;2022-09-06T01:33:09;4.38;;;2.15;;
20945;SDS011;10632;51.276;7.116;2022-09-06T01:35:42;5.20;;;1.98;;
20945;SDS011;10632;51.276;7.116;2022-09-06T01:38:14;4.90;;;2.03;;
20945;SDS011;10632;51.276;7.116;2022-09-06T01:40:41;6.32;;;2.10;;
20945;SDS011;10632;51.276;7.116;2022-09-06T01:43:10;3.78;;;1.98;;
20945;SDS011;10632;51.276;7.116;2022-09-06T01:45:42;5.43;;;1.80;;
20945;SDS011;10632;51.276;7.116;2022-09-06T01:48:21;6.18;;;2.20;;
20945;SDS011;10632;51.276;7.116;2022-09-06T01:51:04;6.65;;;1.92;;
20945;SDS011;10632;51.276;7.116;2022-09-06T01:53:43;4.82;;;2.13;;
20945;SDS011;10632;51.276;7.116;2022-09-06T01:56:23;5.78;;;2.15;;
20945;SDS011;10632;51.276;7.116;2022-09-06T01:59:08;4.75;;;2.00;;
20945;SDS011;10632;51.276;7.116;2022-09-06T02:01:49;4.22;;;1.90;;
20945;SDS011;10632;51.276;7.116;2022-09-06T02:04:25;6.90;;;1.80;;
20945;SDS011;10632;51.276;7.116;2022-09-06T02:06:56;5.68;;;2.22;;
20945;SDS011;10632;51.276;7.116;2022-09-06T02:09:30;5.63;;;2.40;;
20945;SDS011;10632;51.276;7.116;2022-09-06T02:12:05;11.30;;;2.65;;
20945;SDS011;10632;51.276;7.116;2022-09-06T02:14:41;6.65;;;2.30;;
20945;SDS011;10632;51.276;7.116;2022-09-06T02:17:14;4.25;;;2.15;;
20945;SDS011;10632;51.276;7.116;2022-09-06T02:19:46;4.28;;;2.10;;
20945;SDS011;10632;51.276;7.116;2022-09-06T02:22:16;5.28;;;2.40;;
20945;SDS011;10632;51.276;7.116;2022-09-06T02:24:46;9.30;;;2.58;;
20945;SDS011;10632;51.276;7.116;2022-09-06T02:27:17;4.60;;;2.22;;
20945;SDS011;10632;51.276;7.116;2022-09-06T02:29:46;6.72;;;2.40;;
20945;SDS011;10632;51.276;7.116;2022-09-06T02:32:13;4.28;;;2.00;;
20945;SDS011;10632;51.276;7.116;2022-09-06T02:34:45;4.85;;;2.30;;
20945;SDS011;10632;51.276;7.116;2022-09-06T02:37:13;6.25;;;2.17;;
20945;SDS011;10632;51.276;7.116;2022-09-06T02:39:41;7.40;;;2.55;;
20945;SDS011;10632;51.276;7.116;2022-09-06T02:42:09;5.57;;;2.17;;
20945;SDS011;10632;51.276;7.116;2022-09-06T02:44:41;4.15;;;2.17;;
20945;SDS011;10632;51.276;7.116;2022-09-06T02:47:10;3.92;;;2.00;;
20945;SDS011;10632;51.276;7.116;2022-09-06T02:49:37;6.68;;;2.28;;
20945;SDS011;10632;51.276;7.116;2022-09-06T02:52:03;6.63;;;2.35;;
20945;SDS011;10632;51.276;7.116;2022-09-06T02:54:30;5.72;;;2.50;;
20945;SDS011;10632;51.276;7.116;2022-09-06T02:56:57;5.43;;;2.42;;
20945;SDS011;10632;51.276;7.116;2022-09-06T02:59:25;4.88;;;2.38;;
20945;SDS011;10632;51.276;7.116;2022-09-06T03:01:52;5.45;;;2.20;;
20945;SDS011;10632;51.276;7.116;2022-09-06T03:04:21;5.38;;;2.20;;
20945;SDS011;10632;51.276;7.116;2022-09-06T03:06:47;4.85;;;2.20;;
20945;SDS011;10632;51.276;7.116;2022-09-06T03:09:14;5.93;;;2.28;;
20945;SDS011;10632;51.276;7.116;2022-09-06T03:11:41;5.85;;;2.50;;
20945;SDS011;10632;51.276;7.116;2022-09-06T03:14:08;6.50;;;2.20;;
20945;SDS011;10632;51.276;7.116;2022-09-06T03:16:35;6.82;;;2.28;;
20945;SDS011;10632;51.276;7.116;2022-09-06T03:19:03;4.85;;;2.08;;
20945;SDS011;10632;51.276;7.116;2022-09-06T03:21:37;5.93;;;2.40;;
20945;SDS011;10632;51.276;7.116;2022-09-06T03:24:04;5.28;;;2.40;;
20945;SDS011;10632;51.276;7.116;2022-09-06T03:26:35;5.70;;;2.50;;
20945;SDS011;10632;51.276;7.116;2022-09-06T03:29:02;5.60;;;2.30;;
20945;SDS011;10632;51.276;7.116;2022-09-06T03:31:29;5.13;;;2.15;;
20945;SDS011;10632;51.276;7.116;2022-09-06T03:33:56;4.95;;;2.28;;
20945;SDS011;10632;51.276;7.116;2022-09-06T03:36:24;7.47;;;2.30;;
20945;SDS011;10632;51.276;7.116;2022-09-06T03:38:52;6.72;;;2.30;;
20945;SDS011;10632;51.276;7.116;2022-09-06T03:41:19;5.80;;;2.50;;
20945;SDS011;10632;51.276;7.116;2022-09-06T03:43:46;4.45;;;2.17;;
20945;SDS011;10632;51.276;7.116;2022-09-06T03:46:13;5.95;;;2.13;;
20945;SDS011;10632;51.276;7.116;2022-09-06T03:48:39;4.43;;;2.15;;
20945;SDS011;10632;51.276;7.116;2022-09-06T03:51:07;4.28;;;2.10;;
20945;SDS011;10632;51.276;7.116;2022-09-06T03:53:37;4.80;;;2.33;;
20945;SDS011;10632;51.276;7.116;2022-09-06T03:56:07;7.53;;;2.10;;
20945;SDS011;10632;51.276;7.116;2022-09-06T03:58:34;6.55;;;2.30;;
20945;SDS011;10632;51.276;7.116;2022-09-06T04:01:02;7.22;;;2.30;;
20945;SDS011;10632;51.276;7.116;2022-09-06T04:03:30;4.43;;;2.20;;
20945;SDS011;10632;51.276;7.116;2022-09-06T04:05:58;8.85;;;2.40;;
20945;SDS011;10632;51.276;7.116;2022-09-06T04:08:25;5.78;;;2.38;;
20945;SDS011;10632;51.276;7.116;2022-09-06T04:10:55;5.28;;;2.30;;
20945;SDS011;10632;51.276;7.116;2022-09-06T04:13:25;6.03;;;2.63;;
20945;SDS011;10632;51.276;7.116;2022-09-06T04:15:53;6.45;;;2.78;;
20945;SDS011;10632;51.276;7.116;2022-09-06T04:18:20;5.38;;;2.42;;
20945;SDS011;10632;51.276;7.116;2022-09-06T04:20:48;6.07;;;2.08;;
20945;SDS011;10632;51.276;7.116;2022-09-06T04:23:18;5.88;;;2.55;;
20945;SDS011;10632;51.276;7.116;2022-09-06T04:25:45;7.95;;;2.38;;
20945;SDS011;10632;51.276;7.116;2022-09-06T04:28:13;4.82;;;2.25;;
20945;SDS011;10632;51.276;7.116;2022-09-06T04:30:43;5.65;;;2.22;;
20945;SDS011;10632;51.276;7.116;2022-09-06T04:33:14;7.00;;;2.42;;
20945;SDS011;10632;51.276;7.116;2022-09-06T04:35:40;4.25;;;2.35;;
20945;SDS011;10632;51.276;7.116;2022-09-06T04:38:07;6.93;;;2.25;;
20945;SDS011;10632;51.276;7.116;2022-09-06T04:40:34;7.03;;;2.50;;
20945;SDS011;10632;51.276;7.116;2022-09-06T04:43:01;4.68;;;2.10;;
20945;SDS011;10632;51.276;7.116;2022-09-06T04:45:28;5.20;;;2.30;;
20945;SDS011;10632;51.276;7.116;2022-09-06T04:47:58;6.95;;;2.78;;
20945;SDS011;10632;51.276;7.116;2022-09-06T04:50:25;5.38;;;2.30;;
20945;SDS011;10632;51.276;7.116;2022-09-06T04:52:52;6.13;;;2.40;;
20945;SDS011;10632;51.276;7.116;2022-09-06T04:55:19;6.28;;;2.22;;
20945;SDS011;10632;51.276;7.116;2022-09-06T04:57:46;5.88;;;2.45;;
20945;SDS011;10632;51.276;7.116;2022-09-06T05:00:13;7.00;;;2.63;;
20945;SDS011;10632;51.276;7.116;2022-09-06T05:02:40;6.13;;;2.58;;
20945;SDS011;10632;51.276;7.116;2022-09-06T05:05:10;5.03;;;2.20;;
20945;SDS011;10632;51.276;7.116;2022-09-06T05:07:37;6.72;;;2.35;;
20945;SDS011;10632;51.276;7.116;2022-09-06T05:10:04;7.13;;;2.30;;
20945;SDS011;10632;51.276;7.116;2022-09-06T05:12:31;4.82;;;2.33;;
20945;SDS011;10632;51.276;7.116;2022-09-06T05:14:59;5.10;;;2.15;;
20945;SDS011;10632;51.276;7.116;2022-09-06T05:17:26;5.25;;;2.20;;
20945;SDS011;10632;51.276;7.116;2022-09-06T05:19:53;7.97;;;2.35;;
20945;SDS011;10632;51.276;7.116;2022-09-06T05:22:22;5.55;;;2.22;;
20945;SDS011;10632;51.276;7.116;2022-09-06T05:24:49;5.57;;;2.38;;
20945;SDS011;10632;51.276;7.116;2022-09-06T05:27:16;5.93;;;2.33;;
20945;SDS011;10632;51.276;7.116;2022-09-06T05:29:43;4.70;;;2.22;;
20945;SDS011;10632;51.276;7.116;2022-09-06T05:32:10;4.80;;;2.40;;
20945;SDS011;10632;51.276;7.116;2022-09-06T05:34:37;8.35;;;2.67;;
20945;SDS011;10632;51.276;7.116;2022-09-06T05:37:06;4.07;;;2.30;;
20945;SDS011;10632;51.276;7.116;2022-09-06T05:39:35;5.18;;;2.38;;
20945;SDS011;10632;51.276;7.116;2022-09-06T05:42:02;6.13;;;2.38;;
20945;SDS011;10632;51.276;7.116;2022-09-06T05:44:30;5.07;;;2.13;;
20945;SDS011;10632;51.276;7.116;2022-09-06T05:46:57;5.00;;;2.50;;
20945;SDS011;10632;51.276;7.116;2022-09-06T05:49:24;5.90;;;2.58;;
20945;SDS011;10632;51.276;7.116;2022-09-06T05:51:51;5.80;;;2.33;;
20945;SDS011;10632;51.276;7.116;2022-09-06T05:54:18;4.72;;;2.10;;
20945;SDS011;10632;51.276;7.116;2022-09-06T05:56:47;5.47;;;2.30;;
20945;SDS011;10632;51.276;7.116;2022-09-06T05:59:14;6.65;;;2.35;;
20945;SDS011;10632;51.276;7.116;2022-09-06T06:01:45;6.80;;;2.58;;
20945;SDS011;10632;51.276;7.116;2022-09-06T06:04:13;5.88;;;2.20;;
20945;SDS011;10632;51.276;7.116;2022-09-06T06:06:40;10.80;;;2.42;;
20945;SDS011;10632;51.276;7.116;2022-09-06T06:09:07;4.22;;;2.33;;
20945;SDS011;10632;51.276;7.116;2022-09-06T06:11:34;3.72;;;1.73;;
20945;SDS011;10632;51.276;7.116;2022-09-06T06:14:02;7.57;;;2.20;;
20945;SDS011;10632;51.276;7.116;2022-09-06T06:16:33;6.63;;;2.25;;
20945;SDS011;10632;51.276;7.116;2022-09-06T06:19:01;4.03;;;1.88;;
20945;SDS011;10632;51.276;7.116;2022-09-06T06:21:33;4.25;;;2.00;;
20945;SDS011;10632;51.276;7.116;2022-09-06T06:24:02;4.20;;;2.03;;
20945;SDS011;10632;51.276;7.116;2022-09-06T06:26:32;4.30;;;2.05;;
20945;SDS011;10632;51.276;7.116;2022-09-06T06:29:00;5.07;;;2.40;;
20945;SDS011;10632;51.276;7.116;2022-09-06T06:31:32;5.53;;;2.40;;
20945;SDS011;10632;51.276;7.116;2022-09-06T06:33:59;5.50;;;2.22;;
20945;SDS011;10632;51.276;7.116;2022-09-06T06:36:28;3.95;;;2.00;;
20945;SDS011;10632;51.276;7.116;2022-09-06T06:38:58;4.32;;;2.13;;
20945;SDS011;10632;51.276;7.116;2022-09-06T06:41:26;7.30;;;2.38;;
20945;SDS011;10632;51.276;7.116;2022-09-06T06:43:55;5.75;;;2.45;;
20945;SDS011;10632;51.276;7.116;2022-09-06T06:46:25;4.85;;;2.00;;
20945;SDS011;10632;51.276;7.116;2022-09-06T06:48:55;5.97;;;2.70;;
20945;SDS011;10632;51.276;7.116;2022-09-06T06:51:22;5.30;;;2.40;;
20945;SDS011;10632;51.276;7.116;2022-09-06T06:53:54;5.47;;;2.10;;
20945;SDS011;10632;51.276;7.116;2022-09-06T06:56:22;4.32;;;2.42;;
20945;SDS011;10632;51.276;7.116;2022-09-06T06:58:51;5.60;;;2.30;;
20945;SDS011;10632;51.276;7.116;2022-09-06T07:01:19;4.80;;;2.10;;
20945;SDS011;10632;51.276;7.116;2022-09-06T07:03:48;6.13;;;2.20;;
20945;SDS011;10632;51.276;7.116;2022-09-06T07:06:16;4.75;;;2.13;;
20945;SDS011;10632;51.276;7.116;2022-09-06T07:08:44;3.92;;;2.08;;
20945;SDS011;10632;51.276;7.116;2022-09-06T07:11:12;4.43;;;1.95;;
20945;SDS011;10632;51.276;7.116;2022-09-06T07:13:39;6.88;;;2.40;;
20945;SDS011;10632;51.276;7.116;2022-09-06T07:16:07;5.18;;;2.30;;
20945;SDS011;10632;51.276;7.116;2022-09-06T07:18:36;3.95;;;1.92;;
20945;SDS011;10632;51.276;7.116;2022-09-06T07:21:07;6.00;;;2.28;;
20945;SDS011;10632;51.276;7.116;2022-09-06T07:23:36;4.05;;;1.92;;
20945;SDS011;10632;51.276;7.116;2022-09-06T07:26:03;4.28;;;2.00;;
20945;SDS011;10632;51.276;7.116;2022-09-06T07:28:33;4.88;;;1.92;;
20945;SDS011;10632;51.276;7.116;2022-09-06T07:31:00;4.25;;;2.08;;
20945;SDS011;10632;51.276;7.116;2022-09-06T07:33:29;4.07;;;1.90;;
20945;SDS011;10632;51.276;7.116;2022-09-06T07:35:57;3.92;;;1.90;;
20945;SDS011;10632;51.276;7.116;2022-09-06T07:38:27;6.13;;;1.80;;
20945;SDS011;10632;51.276;7.116;2022-09-06T07:40:55;3.63;;;1.70;;
20945;SDS011;10632;51.276;7.116;2022-09-06T07:43:23;3.47;;;1.60;;
20945;SDS011;10632;51.276;7.116;2022-09-06T07:46:00;4.72;;;1.70;;
20945;SDS011;10632;51.276;7.116;2022-09-06T07:48:29;2.63;;;1.40;;
20945;SDS011;10632;51.276;7.116;2022-09-06T07:51:04;3.13;;;1.48;;
20945;SDS011;10632;51.276;7.116;2022-09-06T07:53:34;2.42;;;1.40;;
20945;SDS011;10632;51.276;7.116;2022-09-06T07:56:02;4.13;;;1.50;;
20945;SDS011;10632;51.276;7.116;2022-09-06T07:58:31;2.83;;;1.40;;
20945;SDS011;10632;51.276;7.116;2022-09-06T08:01:18;3.10;;;1.30;;
20945;SDS011;10632;51.276;7.116;2022-09-06T08:03:52;1.83;;;1.08;;
20945;SDS011;10632;51.276;7.116;2022-09-06T08:06:19;2.58;;;1.10;;
20945;SDS011;10632;51.276;7.116;2022-09-06T08:08:48;3.63;;;1.20;;
20945;SDS011;10632;51.276;7.116;2022-09-06T08:11:15;1.63;;;0.98;;
20945;SDS011;10632;51.276;7.116;2022-09-06T08:13:43;1.83;;;0.90;;
20945;SDS011;10632;51.276;7.116;2022-09-06T08:16:13;1.77;;;0.98;;
20945;SDS011;10632;51.276;7.116;2022-09-06T08:18:42;2.38;;;1.00;;
20945;SDS011;10632;51.276;7.116;2022-09-06T08:21:10;1.73;;;0.95;;
20945;SDS011;10632;51.276;7.116;2022-09-06T08:23:38;3.90;;;1.25;;
20945;SDS011;10632;51.276;7.116;2022-09-06T08:26:09;2.30;;;1.10;;
20945;SDS011;10632;51.276;7.116;2022-09-06T08:28:36;2.30;;;0.98;;
20945;SDS011;10632;51.276;7.116;2022-09-06T08:31:04;3.13;;;0.85;;
20945;SDS011;10632;51.276;7.116;2022-09-06T08:33:32;1.52;;;0.80;;
20945;SDS011;10632;51.276;7.116;2022-09-06T08:35:59;1.75;;;1.02;;
20945;SDS011;10632;51.276;7.116;2022-09-06T08:38:26;3.30;;;1.00;;
20945;SDS011;10632;51.276;7.116;2022-09-06T08:40:54;1.65;;;0.90;;
20945;SDS011;10632;51.276;7.116;2022-09-06T08:43:34;3.40;;;0.90;;
20945;SDS011;10632;51.276;7.116;2022-09-06T08:46:01;2.95;;;1.10;;
20945;SDS011;10632;51.276;7.116;2022-09-06T08:48:31;1.90;;;0.80;;
20945;SDS011;10632;51.276;7.116;2022-09-06T08:51:15;1.58;;;0.82;;
20945;SDS011;10632;51.276;7.116;2022-09-06T08:54:05;2.58;;;0.90;;
20945;SDS011;10632;51.276;7.116;2022-09-06T08:56:37;1.60;;;0.80;;
20945;SDS011;10632;51.276;7.116;2022-09-06T08:59:16;4.20;;;0.90;;
20945;SDS011;10632;51.276;7.116;2022-09-06T09:01:45;2.15;;;0.80;;
20945;SDS011;10632;51.276;7.116;2022-09-06T09:04:24;1.30;;;0.80;;
20945;SDS011;10632;51.276;7.116;2022-09-06T09:06:56;2.95;;;1.10;;
20945;SDS011;10632;51.276;7.116;2022-09-06T09:09:29;1.95;;;0.90;;
20945;SDS011;10632;51.276;7.116;2022-09-06T09:11:58;1.45;;;1.00;;
20945;SDS011;10632;51.276;7.116;2022-09-06T09:14:28;1.77;;;0.88;;
20945;SDS011;10632;51.276;7.116;2022-09-06T09:17:01;3.40;;;0.80;;
20945;SDS011;10632;51.276;7.116;2022-09-06T09:19:30;2.60;;;0.90;;
20945;SDS011;10632;51.276;7.116;2022-09-06T09:22:00;1.95;;;0.98;;
20945;SDS011;10632;51.276;7.116;2022-09-06T09:24:28;2.95;;;0.80;;
20945;SDS011;10632;51.276;7.116;2022-09-06T09:26:56;2.50;;;1.00;;
20945;SDS011;10632;51.276;7.116;2022-09-06T09:29:30;2.88;;;1.08;;
20945;SDS011;10632;51.276;7.116;2022-09-06T09:31:57;4.78;;;1.00;;
20945;SDS011;10632;51.276;7.116;2022-09-06T09:34:28;2.30;;;1.00;;
20945;SDS011;10632;51.276;7.116;2022-09-06T09:37:10;3.35;;;1.10;;
20945;SDS011;10632;51.276;7.116;2022-09-06T09:39:38;1.75;;;1.00;;
20945;SDS011;10632;51.276;7.116;2022-09-06T09:42:06;1.65;;;0.85;;
20945;SDS011;10632;51.276;7.116;2022-09-06T09:44:35;1.92;;;0.80;;
20945;SDS011;10632;51.276;7.116;2022-09-06T09:47:09;1.83;;;1.02;;
20945;SDS011;10632;51.276;7.116;2022-09-06T09:49:49;1.98;;;0.98;;
20945;SDS011;10632;51.276;7.116;2022-09-06T09:52:16;5.53;;;0.82;;
20945;SDS011;10632;51.276;7.116;2022-09-06T09:54:50;4.43;;;0.98;;
20945;SDS011;10632;51.276;7.116;2022-09-06T09:57:20;3.55;;;0.95;;
20945;SDS011;10632;51.276;7.116;2022-09-06T09:59:50;1.35;;;0.88;;
20945;SDS011;10632;51.276;7.116;2022-09-06T10:02:22;4.15;;;1.10;;
20945;SDS011;10632;51.276;7.116;2022-09-06T10:04:51;1.60;;;0.80;;
20945;SDS011;10632;51.276;7.116;2022-09-06T10:07:24;3.83;;;0.90;;
20945;SDS011;10632;51.276;7.116;2022-09-06T10:09:56;1.58;;;0.88;;
20945;SDS011;10632;51.276;7.116;2022-09-06T10:12:26;1.70;;;0.90;;
20945;SDS011;10632;51.276;7.116;2022-09-06T10:14:58;2.58;;;1.05;;
20945;SDS011;10632;51.276;7.116;2022-09-06T10:17:29;2.92;;;1.02;;
20945;SDS011;10632;51.276;7.116;2022-09-06T10:19:58;1.75;;;0.88;;
20945;SDS011;10632;51.276;7.116;2022-09-06T10:22:28;3.70;;;0.80;;
20945;SDS011;10632;51.276;7.116;2022-09-06T10:25:02;2.10;;;1.00;;
20945;SDS011;10632;51.276;7.116;2022-09-06T10:27:46;3.75;;;0.93;;
20945;SDS011;10632;51.276;7.116;2022-09-06T10:30:25;4.97;;;1.02;;
20945;SDS011;10632;51.276;7.116;2022-09-06T10:32:58;3.20;;;1.10;;
20945;SDS011;10632;51.276;7.116;2022-09-06T10:35:30;1.88;;;1.05;;
20945;SDS011;10632;51.276;7.116;2022-09-06T10:38:05;4.15;;;0.90;;
20945;SDS011;10632;51.276;7.116;2022-09-06T10:40:40;2.28;;;1.00;;
20945;SDS011;10632;51.276;7.116;2022-09-06T10:43:19;2.60;;;0.90;;
20945;SDS011;10632;51.276;7.116;2022-09-06T10:45:56;2.55;;;1.00;;
20945;SDS011;10632;51.276;7.116;2022-09-06T10:48:25;2.08;;;0.90;;
20945;SDS011;10632;51.276;7.116;2022-09-06T10:50:56;2.22;;;1.00;;
20945;SDS011;10632;51.276;7.116;2022-09-06T10:53:30;3.05;;;1.10;;
20945;SDS011;10632;51.276;7.116;2022-09-06T10:56:06;3.00;;;1.00;;
20945;SDS011;10632;51.276;7.116;2022-09-06T10:58:40;1.98;;;0.90;;
20945;SDS011;10632;51.276;7.116;2022-09-06T11:01:17;2.72;;;0.90;;
20945;SDS011;10632;51.276;7.116;2022-09-06T11:03:52;1.80;;;0.98;;
20945;SDS011;10632;51.276;7.116;2022-09-06T11:06:24;1.85;;;1.00;;
20945;SDS011;10632;51.276;7.116;2022-09-06T11:09:00;5.70;;;0.90;;
20945;SDS011;10632;51.276;7.116;2022-09-06T11:11:35;2.25;;;0.80;;
20945;SDS011;10632;51.276;7.116;2022-09-06T11:14:08;3.95;;;1.00;;
20945;SDS011;10632;51.276;7.116;2022-09-06T11:16:41;1.90;;;1.00;;
20945;SDS011;10632;51.276;7.116;2022-09-06T11:19:14;2.38;;;1.00;;
20945;SDS011;10632;51.276;7.116;2022-09-06T11:22:03;1.70;;;0.90;;
20945;SDS011;10632;51.276;7.116;2022-09-06T11:24:43;2.38;;;1.20;;
20945;SDS011;10632;51.276;7.116;2022-09-06T11:27:24;1.70;;;1.00;;
20945;SDS011;10632;51.276;7.116;2022-09-06T11:29:59;3.55;;;1.20;;
20945;SDS011;10632;51.276;7.116;2022-09-06T11:32:33;4.18;;;1.00;;
20945;SDS011;10632;51.276;7.116;2022-09-06T11:35:05;3.92;;;1.23;;
20945;SDS011;10632;51.276;7.116;2022-09-06T11:37:36;2.78;;;0.95;;
20945;SDS011;10632;51.276;7.116;2022-09-06T11:40:11;1.92;;;0.82;;
20945;SDS011;10632;51.276;7.116;2022-09-06T11:45:43;4.25;;;1.02;;
20945;SDS011;10632;51.276;7.116;2022-09-06T11:48:30;4.60;;;1.00;;
20945;SDS011;10632;51.276;7.116;2022-09-06T11:51:01;1.63;;;1.00;;
20945;SDS011;10632;51.276;7.116;2022-09-06T11:53:32;1.77;;;0.95;;
20945;SDS011;10632;51.276;7.116;2022-09-06T11:56:13;2.30;;;1.08;;
20945;SDS011;10632;51.276;7.116;2022-09-06T11:58:52;2.17;;;1.13;;
20945;SDS011;10632;51.276;7.116;2022-09-06T12:01:35;2.00;;;1.15;;
20945;SDS011;10632;51.276;7.116;2022-09-06T12:04:05;1.67;;;1.00;;
20945;SDS011;10632;51.276;7.116;2022-09-06T12:06:39;1.70;;;1.10;;
20945;SDS011;10632;51.276;7.116;2022-09-06T12:11:54;2.53;;;1.10;;
20945;SDS011;10632;51.276;7.116;2022-09-06T12:19:48;3.35;;;1.20;;
20945;SDS011;10632;51.276;7.116;2022-09-06T12:25:18;2.72;;;1.23;;
20945;SDS011;10632;51.276;7.116;2022-09-06T12:28:01;2.90;;;1.30;;
20945;SDS011;10632;51.276;7.116;2022-09-06T12:30:30;2.85;;;1.30;;
20945;SDS011;10632;51.276;7.116;2022-09-06T12:33:01;3.85;;;1.17;;
20945;SDS011;10632;51.276;7.116;2022-09-06T12:35:33;3.80;;;1.30;;
20945;SDS011;10632;51.276;7.116;2022-09-06T12:38:01;5.18;;;1.35;;
20945;SDS011;10632;51.276;7.116;2022-09-06T12:40:30;2.25;;;1.40;;
20945;SDS011;10632;51.276;7.116;2022-09-06T12:43:01;5.10;;;1.48;;
20945;SDS011;10632;51.276;7.116;2022-09-06T12:45:29;2.95;;;1.42;;
20945;SDS011;10632;51.276;7.116;2022-09-06T12:48:04;3.42;;;1.40;;
20945;SDS011;10632;51.276;7.116;2022-09-06T12:50:33;3.60;;;1.50;;
20945;SDS011;10632;51.276;7.116;2022-09-06T12:53:01;2.05;;;1.30;;
20945;SDS011;10632;51.276;7.116;2022-09-06T12:55:41;3.70;;;1.48;;
20945;SDS011;10632;51.276;7.116;2022-09-06T12:58:10;5.88;;;1.75;;
20945;SDS011;10632;51.276;7.116;2022-09-06T13:00:38;3.92;;;1.63;;
20945;SDS011;10632;51.276;7.116;2022-09-06T13:03:10;3.92;;;1.60;;
20945;SDS011;10632;51.276;7.116;2022-09-06T13:05:51;2.53;;;1.50;;
20945;SDS011;10632;51.276;7.116;2022-09-06T13:08:21;4.53;;;1.50;;
20945;SDS011;10632;51.276;7.116;2022-09-06T13:10:53;3.55;;;1.73;;
20945;SDS011;10632;51.276;7.116;2022-09-06T13:13:21;6.75;;;1.90;;
20945;SDS011;10632;51.276;7.116;2022-09-06T13:15:49;4.95;;;1.90;;
20945;SDS011;10632;51.276;7.116;2022-09-06T13:18:20;6.65;;;1.73;;
20945;SDS011;10632;51.276;7.116;2022-09-06T13:20:59;5.82;;;2.60;;
20945;SDS011;10632;51.276;7.116;2022-09-06T13:23:28;11.93;;;2.30;;
20945;SDS011;10632;51.276;7.116;2022-09-06T13:26:04;8.32;;;2.83;;
20945;SDS011;10632;51.276;7.116;2022-09-06T13:28:31;7.53;;;1.92;;
20945;SDS011;10632;51.276;7.116;2022-09-06T13:31:06;6.57;;;2.40;;
20945;SDS011;10632;51.276;7.116;2022-09-06T13:33:35;7.53;;;2.40;;
20945;SDS011;10632;51.276;7.116;2022-09-06T13:36:14;4.65;;;1.98;;
20945;SDS011;10632;51.276;7.116;2022-09-06T13:38:45;5.43;;;2.00;;
20945;SDS011;10632;51.276;7.116;2022-09-06T13:44:16;4.32;;;1.60;;
20945;SDS011;10632;51.276;7.116;2022-09-06T13:46:45;5.20;;;2.00;;
20945;SDS011;10632;51.276;7.116;2022-09-06T13:49:17;8.23;;;1.80;;
20945;SDS011;10632;51.276;7.116;2022-09-06T13:51:45;8.32;;;2.50;;
20945;SDS011;10632;51.276;7.116;2022-09-06T13:54:12;4.25;;;2.00;;
20945;SDS011;10632;51.276;7.116;2022-09-06T13:56:40;6.70;;;1.60;;
20945;SDS011;10632;51.276;7.116;2022-09-06T13:59:09;5.95;;;1.90;;
20945;SDS011;10632;51.276;7.116;2022-09-06T14:01:36;6.03;;;1.60;;
20945;SDS011;10632;51.276;7.116;2022-09-06T14:04:03;4.60;;;1.77;;
20945;SDS011;10632;51.276;7.116;2022-09-06T14:06:31;3.22;;;1.67;;
20945;SDS011;10632;51.276;7.116;2022-09-06T14:09:01;3.10;;;1.48;;
20945;SDS011;10632;51.276;7.116;2022-09-06T14:11:28;4.70;;;1.30;;
20945;SDS011;10632;51.276;7.116;2022-09-06T14:13:56;4.25;;;1.30;;
20945;SDS011;10632;51.276;7.116;2022-09-06T14:16:23;3.28;;;1.52;;
20945;SDS011;10632;51.276;7.116;2022-09-06T14:18:50;2.08;;;1.20;;
20945;SDS011;10632;51.276;7.116;2022-09-06T14:21:18;2.83;;;1.20;;
20945;SDS011;10632;51.276;7.116;2022-09-06T14:23:46;5.50;;;1.50;;
20945;SDS011;10632;51.276;7.116;2022-09-06T14:26:17;5.57;;;1.40;;
20945;SDS011;10632;51.276;7.116;2022-09-06T14:28:45;3.10;;;1.40;;
20945;SDS011;10632;51.276;7.116;2022-09-06T14:31:12;2.97;;;1.23;;
20945;SDS011;10632;51.276;7.116;2022-09-06T14:33:41;3.10;;;1.10;;
20945;SDS011;10632;51.276;7.116;2022-09-06T14:36:08;2.75;;;1.15;;
20945;SDS011;10632;51.276;7.116;2022-09-06T14:38:36;2.45;;;1.02;;
20945;SDS011;10632;51.276;7.116;2022-09-06T14:41:04;4.72;;;1.20;;
20945;SDS011;10632;51.276;7.116;2022-09-06T14:43:34;5.63;;;1.08;;
20945;SDS011;10632;51.276;7.116;2022-09-06T14:46:02;1.52;;;1.00;;
20945;SDS011;10632;51.276;7.116;2022-09-06T14:48:30;1.75;;;1.10;;
20945;SDS011;10632;51.276;7.116;2022-09-06T14:50:58;2.70;;;1.20;;
20945;SDS011;10632;51.276;7.116;2022-09-06T14:53:31;1.80;;;1.10;;
20945;SDS011;10632;51.276;7.116;2022-09-06T14:56:00;1.80;;;1.00;;
20945;SDS011;10632;51.276;7.116;2022-09-06T14:58:28;4.80;;;1.10;;
20945;SDS011;10632;51.276;7.116;2022-09-06T15:01:05;3.70;;;1.10;;
20945;SDS011;10632;51.276;7.116;2022-09-06T15:03:37;1.73;;;0.90;;
20945;SDS011;10632;51.276;7.116;2022-09-06T15:06:05;2.08;;;1.10;;
20945;SDS011;10632;51.276;7.116;2022-09-06T15:08:33;2.47;;;1.00;;
20945;SDS011;10632;51.276;7.116;2022-09-06T15:11:00;2.20;;;1.20;;
20945;SDS011;10632;51.276;7.116;2022-09-06T15:13:28;6.80;;;1.20;;
20945;SDS011;10632;51.276;7.116;2022-09-06T15:15:57;3.63;;;1.17;;
20945;SDS011;10632;51.276;7.116;2022-09-06T15:18:27;3.05;;;1.10;;
20945;SDS011;10632;51.276;7.116;2022-09-06T15:20:55;2.22;;;1.30;;
20945;SDS011;10632;51.276;7.116;2022-09-06T15:23:21;5.13;;;1.10;;
20945;SDS011;10632;51.276;7.116;2022-09-06T15:25:49;2.22;;;1.10;;